Hlavní strana
METAR-TAF:

METAR-TAF

Letiště :

Verona, Itálie

zeměpisná šířka: 45-23N, zeměpisná délka: 010-52E, výška: 67 m

Aktuální stav počasí

Zpráva byla vytvořena před 42 minutami, v 16:50 UTC
Východní vítr 3 kt
Teplota 8°C
Vlhkost vzduchu 61%
Tlak 1024 hPa
Viditelnost 10 km a více
Žádná oblačnost pod 1500 m, nevyskytují se cumulonimby.

METAR: LIPX 171650Z 10003KT CAVOK 08/01 Q1024

Čas: 18:32 (17:32 UTC)

Předpověď počasí

Zpráva byla vytvořena před 3 hodinami a 32 minutami, v 14:00 UTC
Předpověď platná od 17 v 15 UTC do 17 v 24 UTC
Východoseverovýchodní vítr 8 kt
Viditelnost 10 km a více
Žádná oblačnost pod 1500 m, nevyskytují se cumulonimby.

TAF: LIPX 171400Z 1715/1724 07008KT CAVOK

Stav a předpovědi počasí z více než 4 000 letišť (zprávy METAR a TAF).

Červené a žluté tečky na mapě představují dostupné meteorologické stanice.

Když kurzor umístíte na tečku, zobrazí se název stanice.

Pak kliknutím zobrazíte stav a předpověď počasí.

Chcete-li změnit mapu, kliknutím na zelené tlačítko se znaménkem +mapu přiblížíte, kliknutím na zelené tlačítko se znaménkem – mapu oddálíte a kliknutím na zelené šipky přejdete na sousední mapy.


METAR-TAF: